CheckWX is a tool to help pilots better visualize weather data.  It is not intended as a substitute for an official pre-flight weather briefing.

14:52:21 UTC

KBAF TAF
Westfield-Barnes Regional Airport
Westfield/Springfield, Massachusetts, USA
KBAF 231123Z 2312/2412 31019G30KT P6SM VCSH OVC070 FM231400 31019G31KT P6SM SCT090 FM240400 30009KT P6SM SKC FM240700 30006KT P6SM SKC

Mar-23@
12:00 UTC

Mar-23 @ 12:00 UTC

Mar-23@
14:00 UTC

Mar-23 @ 14:00 UTC

KBAF 231123Z 2312/2412 31019G30KT P6SM VCSH OVC070

Expired

Wind
  • 310° at 19 KTS
  • {Gusting to 30 KTS
Cloud Levels
  • Overcast at 7,000' AGL

Mar-23@
14:00 UTC

Mar-23 @ 14:00 UTC

Mar-24@
04:00 UTC

Mar-24 @ 04:00 UTC

FM231400 31019G31KT P6SM SCT090

From

From Standard forecast or significant change

Wind
  • 310° at 19 KTS
  • {Gusting to 31 KTS
Cloud Levels
  • Scattered at 9,000' AGL

Mar-24@
04:00 UTC

Mar-24 @ 04:00 UTC

Mar-24@
07:00 UTC

Mar-24 @ 07:00 UTC

FM240400 30009KT P6SM SKC

From

From Standard forecast or significant change

Wind
  • 300° at 9 KTS
Cloud Levels
  • Clear skies

Mar-24@
07:00 UTC

Mar-24 @ 07:00 UTC

Mar-24@
12:00 UTC

Mar-24 @ 12:00 UTC

FM240700 30006KT P6SM SKC

From

From Standard forecast or significant change

Wind
  • 300° at 6 KTS
Cloud Levels
  • Clear skies